createdAt,value
2022-11-28T00:01:39.950Z,95.00
2022-11-28T00:04:07.635Z,94.60
2022-11-28T00:06:37.997Z,94.50
2022-11-28T00:09:05.786Z,94.30
2022-11-28T00:11:32.618Z,94.40
2022-11-28T00:13:59.489Z,94.30
2022-11-28T00:16:26.302Z,94.60
2022-11-28T00:18:54.917Z,94.40
2022-11-28T00:21:21.951Z,94.50
2022-11-28T00:23:49.291Z,94.40
2022-11-28T00:26:20.923Z,94.00
2022-11-28T00:28:48.159Z,93.90
2022-11-28T00:31:20.242Z,93.70
2022-11-28T00:33:47.516Z,93.70
2022-11-28T00:36:15.281Z,93.70
2022-11-28T00:38:42.491Z,93.40
2022-11-28T00:41:14.820Z,93.80
2022-11-28T00:43:42.936Z,93.00
2022-11-28T00:46:10.181Z,93.00
2022-11-28T00:48:37.237Z,93.40
2022-11-28T00:51:13.104Z,93.30
2022-11-28T00:53:42.444Z,93.30
2022-11-28T00:56:11.244Z,93.40
2022-11-28T00:58:38.690Z,93.60
2022-11-28T01:01:11.203Z,94.10
2022-11-28T01:03:38.637Z,93.70
2022-11-28T01:06:06.126Z,93.90
2022-11-28T01:08:33.072Z,93.60
2022-11-28T01:11:00.671Z,93.90
2022-11-28T01:13:27.716Z,93.80
2022-11-28T01:15:55.939Z,94.60
2022-11-28T01:18:22.711Z,94.50
2022-11-28T01:20:49.419Z,95.20
2022-11-28T01:23:18.505Z,95.60
2022-11-28T01:25:45.242Z,96.20
2022-11-28T01:28:11.944Z,95.90
2022-11-28T01:30:38.680Z,95.80
2022-11-28T01:37:59.782Z,95.30
2022-11-28T01:40:26.667Z,94.90
2022-11-28T01:42:53.346Z,94.30
2022-11-28T01:45:30.109Z,93.60
2022-11-28T01:48:00.055Z,93.50
2022-11-28T01:50:28.504Z,93.80
2022-11-28T01:53:00.189Z,93.40
2022-11-28T01:55:30.316Z,93.70
2022-11-28T01:57:57.569Z,93.20
2022-11-28T02:00:24.416Z,93.70
2022-11-28T02:02:56.909Z,93.90
2022-11-28T02:05:23.615Z,93.80
2022-11-28T02:07:51.558Z,93.40
2022-11-28T02:10:31.935Z,93.40
2022-11-28T02:13:08.420Z,93.40
2022-11-28T02:16:11.486Z,94.00
2022-11-28T02:18:50.682Z,94.00
2022-11-28T02:21:44.028Z,93.90
2022-11-28T02:24:19.699Z,93.70
2022-11-28T02:27:11.411Z,93.40
2022-11-28T02:29:47.411Z,93.50
2022-11-28T02:32:39.397Z,93.70
2022-11-28T02:35:34.062Z,93.90
2022-11-28T02:40:32.185Z,94.90
2022-11-28T02:43:24.051Z,94.70
2022-11-28T02:46:28.420Z,95.00
2022-11-28T02:49:05.485Z,95.90
2022-11-28T02:51:40.773Z,95.80
2022-11-28T02:54:11.183Z,96.30
2022-11-28T02:56:38.060Z,96.30
2022-11-28T02:59:18.749Z,96.60
2022-11-28T03:01:45.514Z,96.00
2022-11-28T03:04:33.874Z,95.90
2022-11-28T03:07:16.369Z,95.20
2022-11-28T03:09:56.853Z,95.20
2022-11-28T03:12:51.610Z,94.30
2022-11-28T03:15:23.920Z,94.30
2022-11-28T03:17:53.406Z,94.30
2022-11-28T03:20:51.774Z,94.40
2022-11-28T03:23:28.475Z,94.10
2022-11-28T03:26:00.621Z,94.10
2022-11-28T03:28:49.142Z,94.20
2022-11-28T03:31:27.927Z,94.30
2022-11-28T03:33:58.391Z,93.50
2022-11-28T03:36:36.137Z,93.50
2022-11-28T03:39:08.897Z,93.90
2022-11-28T03:41:47.286Z,93.90
2022-11-28T03:44:21.035Z,94.40
2022-11-28T03:46:50.422Z,94.40
2022-11-28T03:49:25.823Z,95.10
2022-11-28T03:52:03.074Z,95.00
2022-11-28T03:54:40.465Z,95.10
2022-11-28T03:57:18.074Z,95.60
2022-11-28T03:59:49.041Z,95.70
2022-11-28T04:02:34.532Z,95.80
2022-11-28T04:05:24.655Z,95.80
2022-11-28T04:07:58.402Z,96.00
2022-11-28T04:10:43.644Z,96.50
2022-11-28T04:13:45.830Z,96.60
2022-11-28T04:16:28.768Z,96.30
2022-11-28T04:19:01.650Z,97.20
2022-11-28T04:21:43.355Z,96.60
2022-11-28T04:24:16.034Z,96.30
2022-11-28T04:26:48.249Z,95.90
2022-11-28T04:29:20.639Z,96.00
2022-11-28T04:31:50.656Z,96.40
2022-11-28T04:34:20.547Z,96.60
2022-11-28T04:36:49.285Z,96.40
2022-11-28T04:39:20.141Z,96.20
2022-11-28T04:41:52.613Z,96.90
2022-11-28T04:44:32.276Z,97.00
2022-11-28T04:46:59.460Z,97.20
2022-11-28T04:49:28.332Z,97.00
2022-11-28T04:52:18.714Z,97.20
2022-11-28T04:55:42.923Z,97.60
2022-11-28T04:58:13.216Z,97.80
2022-11-28T05:00:41.263Z,97.70
2022-11-28T05:03:09.465Z,97.50
2022-11-28T05:05:45.494Z,97.50
2022-11-28T05:08:12.429Z,96.90
2022-11-28T05:10:39.596Z,96.30
2022-11-28T05:13:06.349Z,95.50
2022-11-28T05:15:33.308Z,95.40
2022-11-28T05:18:00.045Z,95.50
2022-11-28T05:20:27.021Z,95.80
2022-11-28T05:22:53.794Z,95.90
2022-11-28T05:25:20.935Z,95.60
2022-11-28T05:27:48.180Z,95.60
2022-11-28T05:30:15.115Z,95.20
2022-11-28T05:32:42.172Z,95.50
2022-11-28T05:35:09.476Z,95.70
2022-11-28T05:37:36.790Z,96.30
2022-11-28T05:40:04.090Z,96.50
2022-11-28T05:42:35.089Z,97.00
2022-11-28T05:45:02.409Z,97.10
2022-11-28T05:47:33.200Z,97.20
2022-11-28T05:50:00.032Z,97.40
2022-11-28T05:52:29.615Z,97.70
2022-11-28T05:54:56.440Z,97.50
2022-11-28T05:57:23.109Z,97.80
2022-11-28T05:59:49.815Z,97.60
2022-11-28T06:02:16.646Z,97.90
2022-11-28T06:04:43.533Z,97.10
2022-11-28T06:07:10.320Z,97.70
2022-11-28T06:09:37.069Z,97.30
2022-11-28T06:12:03.896Z,97.90
2022-11-28T06:14:30.610Z,98.60
2022-11-28T06:16:57.425Z,99.10
2022-11-28T06:19:24.142Z,99.60
2022-11-28T06:21:51.026Z,99.90
2022-11-28T06:24:17.775Z,99.90
2022-11-28T06:26:44.520Z,99.90
2022-11-28T06:29:11.219Z,99.90
2022-11-28T06:31:37.993Z,99.90
2022-11-28T06:34:04.843Z,99.90
2022-11-28T06:36:31.603Z,99.90
2022-11-28T06:38:58.407Z,99.90
2022-11-28T06:41:25.190Z,99.20
2022-11-28T06:43:51.975Z,99.90
2022-11-28T06:46:21.160Z,99.80
2022-11-28T06:48:49.169Z,99.30
2022-11-28T06:51:17.117Z,99.90
2022-11-28T06:53:43.856Z,99.90
2022-11-28T06:56:17.627Z,99.90
2022-11-28T06:58:45.640Z,99.90
2022-11-28T07:01:17.437Z,99.90
2022-11-28T07:03:44.732Z,99.90
2022-11-28T07:06:12.383Z,99.80
2022-11-28T07:08:39.702Z,99.90
2022-11-28T07:11:14.344Z,99.30
2022-11-28T07:13:41.906Z,99.90
2022-11-28T07:16:13.072Z,99.90
2022-11-28T07:18:39.820Z,99.90
2022-11-28T07:21:06.647Z,99.90
2022-11-28T07:23:33.456Z,99.90
2022-11-28T07:26:01.515Z,99.90
2022-11-28T07:28:29.591Z,99.90
2022-11-28T07:31:03.532Z,99.90
2022-11-28T07:33:30.441Z,99.90
2022-11-28T07:36:02.154Z,99.90
2022-11-28T07:38:28.939Z,99.90
2022-11-28T07:41:01.940Z,99.90
2022-11-28T07:43:28.649Z,99.90
2022-11-28T07:46:01.008Z,99.90
2022-11-28T07:48:28.194Z,99.90
2022-11-28T07:50:54.994Z,99.90
2022-11-28T07:53:22.139Z,99.90
2022-11-28T07:55:48.891Z,99.90
2022-11-28T07:58:15.613Z,99.90
2022-11-28T08:00:42.405Z,99.90
2022-11-28T08:03:09.373Z,99.90
2022-11-28T08:05:36.107Z,99.90
2022-11-28T08:08:03.011Z,99.90
2022-11-28T08:10:29.859Z,99.90
2022-11-28T08:12:56.609Z,99.90
2022-11-28T08:15:23.354Z,99.90
2022-11-28T08:17:50.154Z,99.90
2022-11-28T08:20:16.935Z,99.90
2022-11-28T08:22:43.719Z,99.90
2022-11-28T08:25:10.444Z,99.90
2022-11-28T08:27:37.204Z,99.90
2022-11-28T08:30:04.326Z,99.90
2022-11-28T08:32:31.660Z,99.90
2022-11-28T08:34:58.437Z,99.90
2022-11-28T08:37:25.218Z,99.90
2022-11-28T08:39:51.929Z,99.90
2022-11-28T08:42:18.642Z,99.90
2022-11-28T08:44:45.349Z,99.90
2022-11-28T08:47:12.077Z,99.90
2022-11-28T08:49:39.420Z,99.90
2022-11-28T08:52:06.405Z,99.90
2022-11-28T08:54:33.241Z,99.90
2022-11-28T08:57:01.385Z,99.90
2022-11-28T08:59:28.370Z,99.90
2022-11-28T09:01:55.388Z,99.90
2022-11-28T09:04:23.720Z,99.90
2022-11-28T09:06:51.129Z,99.90
2022-11-28T09:11:45.694Z,99.90
2022-11-28T09:14:12.759Z,99.90
2022-11-28T09:16:40.221Z,99.90
2022-11-28T09:19:09.182Z,99.90
2022-11-28T09:21:36.108Z,99.90
2022-11-28T09:24:02.850Z,99.90
2022-11-28T09:26:30.050Z,99.90
2022-11-28T09:28:57.094Z,99.90
2022-11-28T09:31:23.963Z,99.90
2022-11-28T09:33:51.161Z,99.90
2022-11-28T09:36:20.443Z,99.90
2022-11-28T09:38:47.531Z,99.90
2022-11-28T09:41:37.208Z,99.90
2022-11-28T09:44:42.982Z,99.90
2022-11-28T09:47:19.422Z,99.90
2022-11-28T09:49:55.714Z,99.90
2022-11-28T09:52:31.992Z,99.90
2022-11-28T09:55:04.365Z,99.90
2022-11-28T09:57:49.659Z,99.90
2022-11-28T10:00:32.589Z,99.90
2022-11-28T10:03:17.375Z,99.90
2022-11-28T10:05:48.953Z,99.90
2022-11-28T10:08:30.712Z,99.90
2022-11-28T10:11:38.682Z,99.90
2022-11-28T10:14:38.801Z,99.90
2022-11-28T10:17:30.339Z,99.90
2022-11-28T10:20:19.943Z,99.90
2022-11-28T10:22:54.505Z,99.90
2022-11-28T10:25:39.298Z,99.90
2022-11-28T10:28:11.600Z,99.90
2022-11-28T10:30:44.456Z,99.90
2022-11-28T10:33:29.012Z,99.90
2022-11-28T10:36:01.307Z,99.90
2022-11-28T10:38:31.208Z,99.90
2022-11-28T10:41:15.713Z,99.90
2022-11-28T10:43:57.568Z,99.90
2022-11-28T10:46:47.556Z,99.90
2022-11-28T10:49:24.133Z,99.90
2022-11-28T10:51:50.780Z,99.90
2022-11-28T10:54:33.218Z,99.90
2022-11-28T10:57:22.359Z,99.90
2022-11-28T11:00:12.207Z,99.90
2022-11-28T11:02:50.823Z,99.90
2022-11-28T11:05:35.044Z,99.90
2022-11-28T11:08:17.932Z,99.90
2022-11-28T11:10:50.687Z,99.90
2022-11-28T11:13:20.550Z,99.90
2022-11-28T11:16:01.117Z,99.90
2022-11-28T11:18:30.649Z,99.90
2022-11-28T11:21:18.921Z,99.90
2022-11-28T11:23:47.425Z,99.90
2022-11-28T11:26:33.025Z,99.90
2022-11-28T11:28:59.851Z,99.90
2022-11-28T11:31:40.880Z,99.90
2022-11-28T11:34:15.510Z,99.90
2022-11-28T11:36:42.597Z,99.90
2022-11-28T11:39:12.525Z,99.80
2022-11-28T11:41:44.586Z,99.90
2022-11-28T11:44:14.328Z,99.50
2022-11-28T11:46:55.435Z,99.10
2022-11-28T11:49:33.637Z,98.80
2022-11-28T11:52:16.464Z,98.80
2022-11-28T11:54:58.186Z,98.20
2022-11-28T11:57:34.754Z,98.00
2022-11-28T12:00:17.111Z,98.20
2022-11-28T12:02:54.821Z,98.90
2022-11-28T12:05:24.906Z,98.10
2022-11-28T12:08:05.302Z,98.40
2022-11-28T12:10:40.220Z,98.20
2022-11-28T12:13:35.675Z,98.60
2022-11-28T12:16:30.314Z,97.90
2022-11-28T12:19:34.012Z,97.70
2022-11-28T12:22:12.999Z,98.50
2022-11-28T12:24:39.671Z,97.80
2022-11-28T12:27:15.190Z,98.70
2022-11-28T12:30:14.367Z,98.40
2022-11-28T12:33:05.384Z,98.10
2022-11-28T12:35:42.996Z,97.50
2022-11-28T12:38:28.427Z,97.70
2022-11-28T12:41:32.141Z,98.20
2022-11-28T12:44:29.678Z,97.90
2022-11-28T12:47:15.425Z,98.50
2022-11-28T12:50:03.901Z,97.40
2022-11-28T12:53:11.568Z,98.10
2022-11-28T12:55:58.255Z,97.60
2022-11-28T12:58:33.679Z,98.00
2022-11-28T13:01:11.660Z,98.20
2022-11-28T13:03:51.190Z,97.40
2022-11-28T13:06:40.873Z,97.30
2022-11-28T13:09:25.199Z,98.10
2022-11-28T13:12:06.872Z,98.50
2022-11-28T13:14:54.969Z,98.70
2022-11-28T13:17:35.915Z,98.30
2022-11-28T13:20:18.773Z,97.70
2022-11-28T13:23:04.600Z,98.20
2022-11-28T13:25:37.921Z,98.10
2022-11-28T13:28:11.394Z,98.50
2022-11-28T13:30:46.799Z,97.90
2022-11-28T13:33:35.419Z,97.80
2022-11-28T13:36:04.159Z,98.10
2022-11-28T13:39:11.803Z,99.20
2022-11-28T13:44:53.304Z,98.60
2022-11-28T13:47:23.045Z,98.20
2022-11-28T13:49:49.963Z,98.60
2022-11-28T13:52:20.006Z,98.90
2022-11-28T13:54:54.346Z,99.10
2022-11-28T13:57:27.797Z,99.80
2022-11-28T13:59:57.004Z,99.90
2022-11-28T14:02:38.385Z,99.90
2022-11-28T14:05:14.789Z,99.90
2022-11-28T14:07:47.821Z,99.90
2022-11-28T14:10:42.436Z,99.90
2022-11-28T14:13:49.857Z,99.90
2022-11-28T14:16:50.014Z,99.90
2022-11-28T14:19:21.252Z,99.90
2022-11-28T14:21:56.699Z,99.90
2022-11-28T14:24:35.563Z,99.90
2022-11-28T14:27:05.282Z,99.90
2022-11-28T14:29:38.262Z,99.90
2022-11-28T14:32:28.933Z,99.90
2022-11-28T14:34:52.853Z,99.90
2022-11-28T14:37:19.577Z,99.90
2022-11-28T14:39:50.301Z,99.90
2022-11-28T14:42:43.999Z,99.90
2022-11-28T14:45:29.140Z,99.90
2022-11-28T14:48:15.922Z,99.90
2022-11-28T14:50:45.936Z,99.90
2022-11-28T14:53:34.529Z,99.90
2022-11-28T14:56:22.539Z,99.90
2022-11-28T14:58:51.324Z,99.90
2022-11-28T15:01:35.408Z,99.90
2022-11-28T15:04:19.983Z,99.90
2022-11-28T15:06:50.165Z,99.90
2022-11-28T15:09:37.995Z,99.90
2022-11-28T15:12:17.204Z,99.90
2022-11-28T15:14:47.292Z,99.90
2022-11-28T15:17:14.926Z,99.90
2022-11-28T15:19:48.219Z,99.90
2022-11-28T15:22:40.368Z,99.90
2022-11-28T15:25:29.467Z,99.90
2022-11-28T15:27:56.875Z,99.90
2022-11-28T15:30:26.577Z,99.90
2022-11-28T15:32:58.261Z,99.90
2022-11-28T15:35:25.344Z,99.90
2022-11-28T15:37:55.226Z,99.90
2022-11-28T15:40:33.595Z,99.90
2022-11-28T15:43:01.379Z,99.90
2022-11-28T15:45:37.900Z,99.90
2022-11-28T15:48:04.860Z,99.90
2022-11-28T15:50:33.799Z,99.90
2022-11-28T15:53:15.628Z,99.90
2022-11-28T15:55:42.780Z,99.90
2022-11-28T15:58:29.838Z,99.90
2022-11-28T16:01:04.956Z,99.90
2022-11-28T16:04:04.511Z,99.90
2022-11-28T16:06:35.074Z,99.90
2022-11-28T16:09:26.990Z,99.90
2022-11-28T16:11:54.494Z,99.90
2022-11-28T16:14:31.006Z,99.90
2022-11-28T16:17:00.750Z,99.90
2022-11-28T16:19:37.093Z,99.90
2022-11-28T16:22:11.973Z,99.90
2022-11-28T16:24:55.713Z,99.90
2022-11-28T16:27:40.061Z,99.90
2022-11-28T16:30:38.860Z,99.90
2022-11-28T16:33:33.610Z,99.90
2022-11-28T16:36:15.610Z,99.90
2022-11-28T16:38:43.843Z,99.90
2022-11-28T16:41:25.087Z,99.90
2022-11-28T16:43:59.192Z,99.90
2022-11-28T16:46:30.566Z,99.90
2022-11-28T16:48:58.735Z,99.90
2022-11-28T16:51:37.924Z,99.90
2022-11-28T16:54:31.010Z,99.90
2022-11-28T16:57:09.437Z,99.90
2022-11-28T16:59:36.380Z,99.90
2022-11-28T17:02:03.739Z,99.90
2022-11-28T17:04:31.440Z,99.90
2022-11-28T17:07:05.102Z,99.90
2022-11-28T17:09:33.863Z,99.90
2022-11-28T17:12:07.904Z,99.90
2022-11-28T17:14:34.807Z,99.90
2022-11-28T17:17:01.517Z,99.90
2022-11-28T17:19:28.264Z,99.90
2022-11-28T17:21:58.952Z,99.90
2022-11-28T17:24:33.413Z,99.90
2022-11-28T17:27:00.546Z,99.90
2022-11-28T17:29:28.584Z,99.90
2022-11-28T17:31:57.710Z,99.90
2022-11-28T17:34:27.250Z,99.90
2022-11-28T17:36:54.039Z,99.90
2022-11-28T17:39:21.037Z,99.90
2022-11-28T17:41:48.723Z,99.90
2022-11-28T17:44:22.500Z,99.90
2022-11-28T17:46:54.044Z,99.90
2022-11-28T17:49:21.414Z,99.90
2022-11-28T17:51:48.674Z,99.90
2022-11-28T17:54:17.878Z,99.90
2022-11-28T17:56:49.535Z,99.90
2022-11-28T17:59:18.002Z,99.90
2022-11-28T18:01:45.222Z,99.90
2022-11-28T18:04:12.652Z,99.90
2022-11-28T18:06:43.543Z,99.90
2022-11-28T18:09:12.391Z,99.90
2022-11-28T18:11:40.675Z,99.90
2022-11-28T18:14:07.522Z,99.90
2022-11-28T18:16:36.268Z,99.90
2022-11-28T18:19:04.223Z,99.90
2022-11-28T18:21:31.630Z,99.90
2022-11-28T18:23:58.516Z,99.90
2022-11-28T18:26:26.161Z,99.90
2022-11-28T18:28:54.253Z,99.90
2022-11-28T18:31:26.656Z,99.90
2022-11-28T18:33:58.761Z,99.90
2022-11-28T18:36:29.417Z,99.90
2022-11-28T18:39:02.368Z,99.90
2022-11-28T18:41:29.976Z,99.90
2022-11-28T18:43:58.496Z,99.90
2022-11-28T18:46:26.046Z,99.90
2022-11-28T18:48:53.291Z,99.90
2022-11-28T18:51:22.108Z,99.90
2022-11-28T18:53:50.353Z,99.90
2022-11-28T18:56:17.958Z,99.90
2022-11-28T18:58:47.983Z,99.90
2022-11-28T19:01:28.650Z,99.90
2022-11-28T19:03:58.215Z,99.90
2022-11-28T19:06:25.487Z,99.90
2022-11-28T19:08:57.821Z,99.90
2022-11-28T19:11:26.640Z,99.90
2022-11-28T19:13:55.036Z,99.90
2022-11-28T19:16:27.632Z,99.90
2022-11-28T19:18:55.540Z,99.90
2022-11-28T19:21:25.169Z,99.90
2022-11-28T19:23:52.259Z,99.90
2022-11-28T19:26:22.046Z,99.90
2022-11-28T19:28:49.449Z,99.90
2022-11-28T19:31:23.482Z,99.90
2022-11-28T19:34:07.107Z,99.90
2022-11-28T19:36:37.631Z,99.90
2022-11-28T19:39:05.161Z,99.90
2022-11-28T19:41:32.342Z,99.90
2022-11-28T19:43:59.594Z,99.90
2022-11-28T19:46:31.889Z,99.90
2022-11-28T19:49:02.069Z,99.90
2022-11-28T19:51:28.889Z,99.90
2022-11-28T19:53:59.952Z,99.90
2022-11-28T19:56:30.146Z,99.90
2022-11-28T19:58:56.937Z,99.90
2022-11-28T20:01:24.728Z,99.90
2022-11-28T20:03:52.555Z,99.90
2022-11-28T20:06:28.183Z,99.90
2022-11-28T20:08:58.592Z,99.90
2022-11-28T20:11:31.190Z,99.90
2022-11-28T20:14:00.700Z,99.90
2022-11-28T20:16:29.115Z,99.90
2022-11-28T20:18:56.071Z,99.90
2022-11-28T20:21:22.887Z,99.90
2022-11-28T20:23:52.198Z,99.90
2022-11-28T20:26:21.234Z,99.90
2022-11-28T20:28:48.921Z,99.90
2022-11-28T20:31:33.758Z,99.90
2022-11-28T20:34:01.783Z,99.90
2022-11-28T20:36:30.812Z,99.90
2022-11-28T20:38:58.178Z,99.90
2022-11-28T20:41:26.544Z,99.90
2022-11-28T20:43:53.738Z,99.90
2022-11-28T20:46:32.759Z,99.90
2022-11-28T20:49:04.823Z,99.90
2022-11-28T20:51:33.511Z,99.90
2022-11-28T20:54:01.487Z,99.90
2022-11-28T20:56:30.437Z,99.90
2022-11-28T20:59:02.215Z,99.90
2022-11-28T21:01:35.414Z,99.90
2022-11-28T21:04:03.923Z,99.90
2022-11-28T21:06:30.743Z,99.90
2022-11-28T21:08:57.877Z,99.90
2022-11-28T21:11:55.157Z,99.90
2022-11-28T21:14:15.156Z,99.90
2022-11-28T21:16:42.445Z,99.90
2022-11-28T21:19:09.499Z,99.90
2022-11-28T21:21:39.514Z,99.90
2022-11-28T21:24:11.196Z,99.90
2022-11-28T21:26:42.404Z,99.90
2022-11-28T21:29:12.933Z,99.90
2022-11-28T21:31:42.826Z,99.90
2022-11-28T21:34:14.374Z,99.90
2022-11-28T21:36:42.077Z,99.90
2022-11-28T21:39:16.082Z,99.90
2022-11-28T21:41:42.853Z,99.90
2022-11-28T21:44:10.040Z,99.90
2022-11-28T21:46:36.868Z,99.90
2022-11-28T21:49:03.722Z,99.90
2022-11-28T21:51:30.485Z,99.90
2022-11-28T21:54:00.233Z,99.90
2022-11-28T21:56:27.195Z,99.90
2022-11-28T21:58:54.217Z,99.90
2022-11-28T22:01:21.421Z,99.90
2022-11-28T22:03:48.992Z,99.90
2022-11-28T22:06:19.729Z,99.90
2022-11-28T22:08:48.556Z,99.90
2022-11-28T22:11:16.452Z,99.90
2022-11-28T22:13:45.870Z,99.90
2022-11-28T22:16:17.407Z,99.90
2022-11-28T22:18:46.584Z,99.90
2022-11-28T22:21:49.782Z,99.90
2022-11-28T22:24:02.414Z,99.90
2022-11-28T22:26:29.177Z,99.90
2022-11-28T22:28:55.951Z,99.90
2022-11-28T22:31:22.784Z,99.90
2022-11-28T22:33:50.547Z,99.90
2022-11-28T22:36:20.095Z,99.90
2022-11-28T22:38:48.223Z,99.90
2022-11-28T22:41:26.422Z,99.90
2022-11-28T22:43:56.556Z,99.90
2022-11-28T22:46:23.487Z,99.90
2022-11-28T22:48:51.700Z,99.90
2022-11-28T22:51:23.501Z,99.90
2022-11-28T22:53:55.118Z,99.90
2022-11-28T22:56:22.169Z,99.90
2022-11-28T22:58:49.343Z,99.90
2022-11-28T23:01:18.890Z,99.90
2022-11-28T23:03:46.998Z,99.90
2022-11-28T23:06:22.426Z,99.90
2022-11-28T23:08:49.559Z,99.90
2022-11-28T23:11:19.385Z,99.90
2022-11-28T23:13:49.828Z,99.90
2022-11-28T23:16:39.724Z,99.90
2022-11-28T23:19:10.485Z,99.90
2022-11-28T23:21:39.464Z,99.90
2022-11-28T23:24:07.788Z,99.90
2022-11-28T23:26:35.281Z,99.90
2022-11-28T23:29:03.235Z,99.90
2022-11-28T23:31:32.589Z,99.90
2022-11-28T23:34:00.797Z,99.90
2022-11-28T23:36:36.977Z,99.90
2022-11-28T23:39:11.045Z,99.90
2022-11-28T23:41:37.859Z,99.90
2022-11-28T23:44:04.916Z,99.90
2022-11-28T23:46:31.763Z,99.90
2022-11-28T23:48:58.536Z,99.90
2022-11-28T23:51:26.395Z,99.90
2022-11-28T23:53:53.847Z,99.90
2022-11-28T23:56:26.214Z,99.90
2022-11-28T23:58:54.455Z,99.90
